Puerto Banus, Marbella

>

This is an optional block (switch it off / on) in the settings - file ($SITE['banners'] = false;)

You can display ads, any other important text or photo’s using text / html or PHP code.

You can place one or more at the top and or bottom and it can all be different for content / size .



Thunder radar more information blitzortung!


Rain radar  rain snow radar


Visit our other weather sites:

Documentation for the template used

MeteoibericaRed estaciones Meteorologicas

MeteoclimaticRed estaciones Meteorologicas



No particular awareness of the weather is required.    There are no Weather-warnings

Nearby METAR Reports

   
EBAW - Antwerp
Updated: 23-01-2018 04:50
Overcast  
Overcast  
   Wind: SSW 11.1 km/h
Wind: SSW 11.1 km/h
Temperature: 7°C
Wind Chill: 5°C
Dew Point: 4°C
Humidity: 81%
Barometer: 1020 hPa
Clouds: Overcast
Visibility: More than 10 km
Cloud details: Overcast 4000 ft
EBAW 230350Z AUTO 21006KT 9999 // OVC040/// 07/04 Q1020
EBLG - Liège
Updated: 23-01-2018 04:50
Mostly Cloudy  
Mostly Cloudy  
   Wind: SW 16.7 km/h
Wind: SW 16.7 km/h
Temperature: 6°C
Wind Chill: 3°C
Dew Point: 4°C
Humidity: 87%
Barometer: 1021 hPa
Clouds: Mostly Cloudy
Visibility: More than 10 km
Cloud details: Mostly Cloudy 3800 ft
EBLG 230350Z 23009KT 9999 BKN038 06/04 Q1021 NOSIG
EBCV - Mons/Bergen
Updated: 23-01-2018 04:25
Overcast  
Overcast  
   Wind: SW 11.1 km/h
Wind: SW 11.1 km/h
Temperature: 7°C
Wind Chill: 5°C
Dew Point: 4°C
Humidity: 81%
Barometer: 1021 hPa
Clouds: Overcast
Visibility: More than 10 km
Cloud details: Overcast 3700 ft
EBCV 230325Z AUTO 22006KT 9999 OVC037/// 07/04 Q1021 BLU
EHBK - Maastricht
Updated: 23-01-2018 04:55
Overcast  
Overcast  
   Wind: SSW 13 km/h
Wind: SSW 13 km/h
Temperature: 6°C
Wind Chill: 3°C
Dew Point: 4°C
Humidity: 87%
Barometer: 1021 hPa
Clouds: Overcast
Visibility: More than 10 km
Cloud details: Mostly Cloudy 3800 ft,
Overcast 4300 ft
EHBK 230355Z AUTO 21007KT 9999 BKN038/// OVC043/// 06/04 Q1021
ELLX - Luxemburg
Updated: 23-01-2018 04:50
Mostly Cloudy  
Mostly Cloudy  
   Wind: WSW 13 km/h
Wind: WSW 13 km/h
Temperature: 5°C
Wind Chill: 2°C
Dew Point: 4°C
Humidity: 93%
Barometer: 1022 hPa
Clouds: Mostly Cloudy
Visibility: 7 km
Cloud details: Mostly Cloudy 600 ft
ELLX 230350Z 24007KT 7000 BKN006 05/04 Q1022 NOSIG
EBOS - Oostende
Updated: 23-01-2018 04:50
Mostly Cloudy  
Mostly Cloudy  
   Wind: SW 13 km/h
Wind: SW 13 km/h
Temperature: 6°C
Wind Chill: 3°C
Dew Point: 3°C
Humidity: 81%
Barometer: 1020 hPa
Clouds: Mostly Cloudy
Visibility: More than 10 km
Cloud details: Mostly Cloudy 2500 ft
EBOS 230350Z 22007KT 9999 BKN025 06/03 Q1020 NOSIG

Script developed by  Saratoga-weather.org Adapted for the template by  Weerstation Leuven

You find our weather info also at:

Weather Underground

Iberian Peninsula Weather Network